Time;durP1;ratioP1;P1;durP2;ratioP2;P2;SDS_P1;SDS_P2;PMS_P1;PMS_P2;Temp;Humidity;BMP_temperature;BMP_pressure;BME280_temperature;BME280_humidity;BME280_pressure;Samples;Min_cycle;Max_cycle;Signal;HPM_P1;HPM_P2
2022/01/31 00:01:39;;;;;;;13.27;6.77;;;;;;;;;;4906759;29;20440;-87
2022/01/31 00:04:06;;;;;;;22.07;9.73;;;;;;;;;;4929277;29;20986;-87
2022/01/31 00:06:35;;;;;;;21.03;9.40;;;;;;;;;;4922687;29;20515;-87
2022/01/31 00:09:02;;;;;;;19.00;8.10;;;;;;;;;;4927277;29;20487;-88
2022/01/31 00:11:30;;;;;;;18.40;7.10;;;;;;;;;;4941638;29;20506;-87
2022/01/31 00:14:10;;;;;;;16.00;6.60;;;;;;;;;;4925262;29;20463;-87
2022/01/31 00:16:37;;;;;;;15.93;6.13;;;;;;;;;;4927500;29;20449;-87
2022/01/31 00:19:07;;;;;;;12.10;6.00;;;;;;;;;;4915848;29;20466;-87
2022/01/31 00:21:47;;;;;;;12.53;5.23;;;;;;;;;;4922467;29;20499;-87
2022/01/31 00:24:15;;;;;;;19.00;5.70;;;;;;;;;;4920366;29;20533;-87
2022/01/31 00:26:42;;;;;;;14.17;6.77;;;;;;;;;;4925166;29;20471;-87
2022/01/31 00:29:17;;;;;;;22.53;6.80;;;;;;;;;;4917864;29;20448;-87
2022/01/31 00:31:50;;;;;;;13.60;5.90;;;;;;;;;;4922230;29;20563;-87
2022/01/31 00:34:18;;;;;;;16.43;6.67;;;;;;;;;;4906386;29;20943;-87
2022/01/31 00:36:45;;;;;;;15.40;5.80;;;;;;;;;;4906055;29;20448;-87
2022/01/31 00:39:14;;;;;;;14.03;5.33;;;;;;;;;;4921560;29;20456;-87
2022/01/31 00:41:42;;;;;;;16.10;7.13;;;;;;;;;;4921983;29;20499;-87
2022/01/31 00:44:25;;;;;;;15.67;6.00;;;;;;;;;;4906142;29;20495;-87
2022/01/31 00:47:03;;;;;;;16.70;6.70;;;;;;;;;;4919487;29;20442;-86
2022/01/31 00:51:59;;;;;;;10.63;4.57;;;;;;;;;;4921560;29;20462;-87
2022/01/31 00:54:27;;;;;;;10.63;4.60;;;;;;;;;;4906316;29;20456;-87
2022/01/31 00:57:01;;;;;;;9.43;4.73;;;;;;;;;;4921665;29;20440;-87
2022/01/31 00:59:30;;;;;;;16.80;4.87;;;;;;;;;;4921714;29;20456;-87
2022/01/31 01:01:59;;;;;;;11.87;5.37;;;;;;;;;;4905870;29;20458;-87
2022/01/31 01:04:29;;;;;;;13.63;5.90;;;;;;;;;;4914572;29;20892;-87
2022/01/31 01:06:58;;;;;;;12.93;5.37;;;;;;;;;;4921613;29;20891;-87
2022/01/31 01:09:34;;;;;;;12.90;4.83;;;;;;;;;;4905872;29;20486;-87
2022/01/31 01:12:02;;;;;;;13.67;4.20;;;;;;;;;;4906465;29;20447;-87
2022/01/31 01:14:32;;;;;;;14.77;5.50;;;;;;;;;;4906030;29;20935;-87
2022/01/31 01:17:00;;;;;;;21.50;6.50;;;;;;;;;;4920792;29;20515;-86
2022/01/31 01:19:27;;;;;;;14.83;6.07;;;;;;;;;;4912322;29;20468;-88
2022/01/31 01:21:55;;;;;;;13.57;6.00;;;;;;;;;;4939910;29;20517;-88
2022/01/31 01:24:24;;;;;;;9.47;5.07;;;;;;;;;;4924583;29;21124;-88
2022/01/31 01:26:51;;;;;;;13.00;5.47;;;;;;;;;;4920362;29;20891;-87
2022/01/31 01:29:19;;;;;;;26.97;8.47;;;;;;;;;;4920921;29;20452;-88
2022/01/31 01:31:48;;;;;;;18.87;5.80;;;;;;;;;;4905709;29;20443;-88
2022/01/31 01:34:31;;;;;;;18.97;7.13;;;;;;;;;;4905457;29;20827;-88
2022/01/31 01:37:00;;;;;;;8.50;3.30;;;;;;;;;;4920610;29;20459;-87
2022/01/31 01:39:34;;;;;;;13.10;4.10;;;;;;;;;;4917572;29;20451;-87
2022/01/31 01:42:20;;;;;;;10.70;4.80;;;;;;;;;;4928777;29;20451;-87
2022/01/31 01:44:53;;;;;;;25.37;6.93;;;;;;;;;;4919937;29;20694;-86
2022/01/31 01:47:24;;;;;;;23.37;7.43;;;;;;;;;;4931525;29;20480;-87
2022/01/31 01:49:51;;;;;;;18.43;6.57;;;;;;;;;;4905434;29;20448;-86
2022/01/31 01:52:19;;;;;;;15.47;7.27;;;;;;;;;;4920061;29;21025;-87
2022/01/31 01:54:47;;;;;;;15.40;5.60;;;;;;;;;;4937254;29;20500;-87
2022/01/31 01:57:16;;;;;;;18.50;7.27;;;;;;;;;;4920593;29;20443;-87
2022/01/31 01:59:56;;;;;;;17.57;6.07;;;;;;;;;;4919594;29;20458;-87
2022/01/31 02:02:24;;;;;;;14.80;6.00;;;;;;;;;;4924230;29;20435;-87
2022/01/31 02:04:51;;;;;;;11.90;6.27;;;;;;;;;;4938850;29;20491;-86
2022/01/31 02:07:19;;;;;;;19.50;6.80;;;;;;;;;;4923240;29;20455;-87
2022/01/31 02:09:54;;;;;;;14.40;6.47;;;;;;;;;;4938473;29;20848;-87
2022/01/31 02:12:23;;;;;;;16.40;7.13;;;;;;;;;;4924068;29;20454;-87
2022/01/31 02:14:58;;;;;;;13.70;6.57;;;;;;;;;;4910701;29;20476;-87
2022/01/31 02:17:25;;;;;;;17.37;5.53;;;;;;;;;;4922923;29;20458;-87
2022/01/31 02:19:54;;;;;;;11.53;5.23;;;;;;;;;;4939029;29;20946;-87
2022/01/31 02:22:21;;;;;;;12.40;5.27;;;;;;;;;;4938729;29;20451;-87
2022/01/31 02:25:06;;;;;;;13.97;4.40;;;;;;;;;;4937331;29;20493;-87
2022/01/31 02:27:34;;;;;;;18.87;5.23;;;;;;;;;;4925877;29;20490;-87
2022/01/31 02:30:11;;;;;;;19.20;5.73;;;;;;;;;;4923495;29;20448;-87
2022/01/31 02:32:39;;;;;;;14.30;5.10;;;;;;;;;;4936227;29;20476;-86
2022/01/31 02:35:06;;;;;;;16.20;5.50;;;;;;;;;;4947267;28;20439;-87
2022/01/31 02:37:34;;;;;;;12.27;4.57;;;;;;;;;;4946841;28;20455;-88
2022/01/31 02:40:03;;;;;;;7.80;3.30;;;;;;;;;;4939560;29;20484;-87
2022/01/31 02:42:38;;;;;;;8.37;4.30;;;;;;;;;;4904199;29;20950;-88
2022/01/31 02:45:08;;;;;;;10.77;3.27;;;;;;;;;;4916007;29;20487;-87
2022/01/31 02:47:41;;;;;;;10.43;3.77;;;;;;;;;;4907004;29;20448;-87
2022/01/31 02:50:13;;;;;;;11.47;3.80;;;;;;;;;;4920398;29;20488;-87
2022/01/31 02:52:57;;;;;;;7.90;3.70;;;;;;;;;;4922543;29;20851;-87
2022/01/31 02:55:25;;;;;;;27.90;9.50;;;;;;;;;;4923471;29;20977;-86
2022/01/31 02:57:54;;;;;;;29.20;9.10;;;;;;;;;;4923198;29;20855;-88
2022/01/31 03:00:32;;;;;;;12.20;5.10;;;;;;;;;;4909261;29;20444;-87
2022/01/31 03:03:00;;;;;;;10.80;3.60;;;;;;;;;;4923514;29;20462;-88
2022/01/31 03:05:30;;;;;;;11.20;3.80;;;;;;;;;;4908235;29;20440;-88
2022/01/31 03:08:04;;;;;;;10.63;3.50;;;;;;;;;;4921647;29;20444;-87
2022/01/31 03:10:38;;;;;;;12.23;3.80;;;;;;;;;;4923631;29;20479;-87
2022/01/31 03:13:07;;;;;;;9.70;4.30;;;;;;;;;;4923895;29;20482;-87
2022/01/31 03:15:42;;;;;;;7.17;2.97;;;;;;;;;;4926871;29;20462;-88
2022/01/31 03:18:13;;;;;;;5.00;2.67;;;;;;;;;;4923264;29;20456;-87
2022/01/31 03:20:50;;;;;;;7.00;2.60;;;;;;;;;;4911764;29;20455;-88
2022/01/31 03:23:19;;;;;;;11.30;3.57;;;;;;;;;;4938589;29;20578;-87
2022/01/31 03:25:49;;;;;;;4.33;2.50;;;;;;;;;;4938193;29;20819;-87
2022/01/31 03:28:17;;;;;;;10.90;3.10;;;;;;;;;;4948687;28;20488;-87
2022/01/31 03:30:45;;;;;;;12.10;2.80;;;;;;;;;;4939988;29;20876;-87
2022/01/31 03:33:15;;;;;;;11.83;3.20;;;;;;;;;;4907805;29;20531;-87
2022/01/31 03:35:47;;;;;;;6.70;2.60;;;;;;;;;;4907610;29;20499;-87
2022/01/31 03:38:14;;;;;;;6.90;2.60;;;;;;;;;;4924273;29;20511;-88
2022/01/31 03:40:43;;;;;;;7.60;2.83;;;;;;;;;;4924532;29;20448;-87
2022/01/31 03:43:11;;;;;;;8.63;3.10;;;;;;;;;;4906892;29;20456;-87
2022/01/31 03:45:39;;;;;;;4.07;2.63;;;;;;;;;;4923157;29;20475;-87
2022/01/31 03:48:07;;;;;;;8.93;2.70;;;;;;;;;;4923850;29;20451;-87
2022/01/31 03:50:35;;;;;;;6.50;2.33;;;;;;;;;;4922535;29;20456;-87
2022/01/31 03:53:02;;;;;;;8.27;3.07;;;;;;;;;;4906713;29;21009;-87
2022/01/31 03:55:29;;;;;;;5.83;3.20;;;;;;;;;;4922508;29;20535;-88
2022/01/31 03:58:05;;;;;;;5.63;2.90;;;;;;;;;;4907649;29;20476;-88
2022/01/31 04:00:40;;;;;;;6.00;2.50;;;;;;;;;;4907034;29;20844;-87
2022/01/31 04:03:08;;;;;;;9.07;3.03;;;;;;;;;;4905866;29;20464;-87
2022/01/31 04:05:38;;;;;;;4.07;2.27;;;;;;;;;;4906832;29;20798;-87
2022/01/31 04:08:05;;;;;;;7.43;2.70;;;;;;;;;;4922028;29;20447;-87
2022/01/31 04:10:45;;;;;;;5.00;3.30;;;;;;;;;;4922466;29;20486;-87
2022/01/31 04:13:27;;;;;;;5.17;1.93;;;;;;;;;;4906805;29;20539;-87
2022/01/31 04:15:56;;;;;;;10.43;2.43;;;;;;;;;;4922661;29;20905;-87
2022/01/31 04:18:24;;;;;;;5.93;2.07;;;;;;;;;;4919635;29;20483;-87
2022/01/31 04:20:51;;;;;;;15.30;2.53;;;;;;;;;;4914599;29;21040;-88
2022/01/31 04:23:23;;;;;;;11.07;2.30;;;;;;;;;;4924918;29;20459;-87
2022/01/31 04:25:55;;;;;;;13.83;3.20;;;;;;;;;;4941027;29;20447;-87
2022/01/31 04:28:30;;;;;;;10.80;4.47;;;;;;;;;;4907181;29;20973;-87
2022/01/31 04:33:47;;;;;;;12.23;3.83;;;;;;;;;;4924466;29;20519;-88
2022/01/31 04:36:15;;;;;;;7.00;4.13;;;;;;;;;;4906665;29;20950;-87
2022/01/31 04:38:44;;;;;;;5.63;2.10;;;;;;;;;;4906435;29;20436;-88
2022/01/31 04:41:13;;;;;;;5.47;2.17;;;;;;;;;;4921314;29;20539;-88
2022/01/31 04:43:48;;;;;;;2.53;1.50;;;;;;;;;;4922035;29;20479;-87
2022/01/31 04:46:19;;;;;;;5.50;2.30;;;;;;;;;;4956892;29;20499;-88
2022/01/31 04:48:47;;;;;;;5.17;2.20;;;;;;;;;;4919571;29;20444;-88
2022/01/31 04:51:14;;;;;;;10.23;4.63;;;;;;;;;;4887657;29;20448;-88
2022/01/31 04:53:42;;;;;;;5.90;2.90;;;;;;;;;;4902208;29;20468;-88
2022/01/31 04:56:13;;;;;;;6.80;2.30;;;;;;;;;;4891028;29;20445;-87
2022/01/31 04:58:47;;;;;;;6.10;2.67;;;;;;;;;;4902769;29;20811;-87
2022/01/31 05:01:15;;;;;;;13.47;4.20;;;;;;;;;;4887077;29;20868;-87
2022/01/31 05:03:54;;;;;;;18.10;7.73;;;;;;;;;;4902492;29;20475;-87
2022/01/31 05:06:36;;;;;;;12.60;6.03;;;;;;;;;;4913561;29;20825;-88
2022/01/31 05:09:11;;;;;;;11.23;6.07;;;;;;;;;;4906952;29;20451;-88
2022/01/31 05:11:40;;;;;;;9.83;3.17;;;;;;;;;;4906248;29;20427;-87
2022/01/31 05:14:09;;;;;;;8.93;2.83;;;;;;;;;;4901181;29;20473;-87
2022/01/31 05:16:49;;;;;;;6.30;2.83;;;;;;;;;;4902784;29;20460;-87
2022/01/31 05:19:17;;;;;;;5.07;2.30;;;;;;;;;;4901923;29;20789;-88
2022/01/31 05:21:45;;;;;;;8.90;3.10;;;;;;;;;;4923958;29;20480;-87
2022/01/31 05:24:13;;;;;;;5.30;2.53;;;;;;;;;;4905812;29;20487;-87
2022/01/31 05:26:50;;;;;;;7.30;3.37;;;;;;;;;;4913003;29;20869;-87
2022/01/31 05:29:29;;;;;;;10.33;2.97;;;;;;;;;;4940252;29;20490;-87
2022/01/31 05:31:58;;;;;;;5.07;2.00;;;;;;;;;;4939650;29;20473;-87
2022/01/31 05:34:26;;;;;;;8.63;1.97;;;;;;;;;;4932048;29;20484;-87
2022/01/31 05:36:56;;;;;;;8.83;2.63;;;;;;;;;;4905775;29;20792;-87
2022/01/31 05:39:25;;;;;;;5.60;2.03;;;;;;;;;;4912697;29;20455;-87
2022/01/31 05:41:53;;;;;;;5.73;2.50;;;;;;;;;;4924292;29;20461;-85
2022/01/31 05:44:23;;;;;;;5.77;2.13;;;;;;;;;;4923804;29;20471;-87
2022/01/31 05:47:00;;;;;;;4.20;2.00;;;;;;;;;;4939701;29;20791;-88
2022/01/31 05:49:30;;;;;;;8.40;2.50;;;;;;;;;;4934930;29;20435;-87
2022/01/31 05:52:04;;;;;;;12.20;2.70;;;;;;;;;;4920436;29;20459;-88
2022/01/31 05:54:34;;;;;;;9.30;2.67;;;;;;;;;;4920388;29;20483;-87
2022/01/31 05:57:01;;;;;;;21.90;3.10;;;;;;;;;;4905393;29;20939;-87
2022/01/31 05:59:32;;;;;;;4.87;2.13;;;;;;;;;;4904907;29;20524;-87
2022/01/31 06:02:05;;;;;;;4.57;2.43;;;;;;;;;;4920602;29;20452;-87
2022/01/31 06:04:34;;;;;;;14.17;2.90;;;;;;;;;;4904986;29;20483;-87
2022/01/31 06:07:01;;;;;;;7.17;2.13;;;;;;;;;;4920975;29;20872;-87
2022/01/31 06:09:32;;;;;;;6.93;2.10;;;;;;;;;;4919369;29;20919;-87
2022/01/31 06:12:03;;;;;;;7.53;2.53;;;;;;;;;;4905049;29;20455;-87
2022/01/31 06:14:31;;;;;;;11.00;2.77;;;;;;;;;;4907912;29;20456;-88
2022/01/31 06:17:01;;;;;;;6.40;2.33;;;;;;;;;;4923807;29;20467;-88
2022/01/31 06:19:37;;;;;;;10.50;2.67;;;;;;;;;;4923136;29;20527;-88
2022/01/31 06:22:07;;;;;;;9.83;2.50;;;;;;;;;;4955080;29;20539;-88
2022/01/31 06:24:36;;;;;;;6.20;3.07;;;;;;;;;;4930181;29;20828;-88
2022/01/31 06:27:06;;;;;;;14.27;2.23;;;;;;;;;;4927144;29;20478;-88
2022/01/31 06:29:35;;;;;;;13.83;2.50;;;;;;;;;;4954861;29;20545;-88
2022/01/31 06:32:04;;;;;;;14.13;1.97;;;;;;;;;;4956994;29;20443;-88
2022/01/31 06:34:32;;;;;;;14.73;2.97;;;;;;;;;;4920007;29;20451;-88
2022/01/31 06:37:04;;;;;;;9.73;1.80;;;;;;;;;;4905028;29;20447;-88
2022/01/31 06:39:32;;;;;;;7.33;2.57;;;;;;;;;;4923960;29;20506;-88
2022/01/31 06:42:05;;;;;;;4.63;1.93;;;;;;;;;;4939620;29;20443;-88
2022/01/31 06:44:39;;;;;;;8.57;2.40;;;;;;;;;;4938640;29;20506;-88
2022/01/31 06:47:09;;;;;;;5.40;2.27;;;;;;;;;;4924008;29;20458;-89
2022/01/31 06:49:39;;;;;;;5.20;2.13;;;;;;;;;;4919786;29;20444;-89
2022/01/31 06:52:06;;;;;;;12.77;2.83;;;;;;;;;;4924258;29;20448;-88
2022/01/31 06:54:35;;;;;;;12.57;3.07;;;;;;;;;;4903876;29;20456;-89
2022/01/31 06:57:06;;;;;;;8.10;2.27;;;;;;;;;;4904784;29;20470;-89
2022/01/31 06:59:34;;;;;;;9.50;2.73;;;;;;;;;;4904419;29;20448;-89
2022/01/31 07:02:04;;;;;;;5.30;2.57;;;;;;;;;;4904772;29;20451;-89
2022/01/31 07:04:35;;;;;;;5.40;2.20;;;;;;;;;;4918062;29;20488;-89
2022/01/31 07:07:03;;;;;;;4.73;2.20;;;;;;;;;;4914958;29;20454;-89
2022/01/31 07:09:36;;;;;;;21.33;2.57;;;;;;;;;;4922690;29;20944;-89
2022/01/31 07:12:09;;;;;;;7.63;2.70;;;;;;;;;;4922745;29;20886;-89
2022/01/31 07:14:43;;;;;;;8.93;2.27;;;;;;;;;;4923546;29;20978;-89
2022/01/31 07:17:23;;;;;;;8.67;2.20;;;;;;;;;;4938370;29;20961;-89
2022/01/31 07:23:51;;;;;;;5.03;2.00;;;;;;;;;;4964565;29;20446;-89
2022/01/31 07:29:38;;;;;;;6.23;2.37;;;;;;;;;;4917452;29;20432;-87
2022/01/31 07:32:10;;;;;;;9.00;2.27;;;;;;;;;;4914357;29;20454;-86
2022/01/31 07:34:40;;;;;;;12.13;2.50;;;;;;;;;;4943294;29;20467;-87
2022/01/31 07:37:11;;;;;;;11.10;2.60;;;;;;;;;;4941434;28;20444;-88
2022/01/31 07:39:40;;;;;;;29.87;4.93;;;;;;;;;;4929180;29;20450;-87
2022/01/31 07:42:09;;;;;;;8.33;3.20;;;;;;;;;;4911430;29;20501;-87
2022/01/31 07:44:39;;;;;;;15.47;4.97;;;;;;;;;;4918462;29;21043;-89
2022/01/31 07:47:09;;;;;;;30.23;7.27;;;;;;;;;;4906870;29;20560;-89
2022/01/31 07:49:43;;;;;;;17.13;5.40;;;;;;;;;;4903243;29;20473;-88
2022/01/31 07:52:15;;;;;;;24.00;4.40;;;;;;;;;;4920712;29;20448;-88
2022/01/31 07:54:44;;;;;;;13.37;4.90;;;;;;;;;;4915688;29;20875;-88
2022/01/31 07:57:11;;;;;;;22.37;4.70;;;;;;;;;;4906950;29;20955;-89
2022/01/31 07:59:58;;;;;;;11.70;4.27;;;;;;;;;;4901115;29;20509;-89
2022/01/31 08:02:34;;;;;;;15.70;4.23;;;;;;;;;;4900277;29;20456;-88
2022/01/31 08:05:05;;;;;;;13.20;3.43;;;;;;;;;;4900109;29;20496;-88
2022/01/31 08:07:37;;;;;;;15.03;3.33;;;;;;;;;;4915912;29;20457;-90
2022/01/31 08:10:06;;;;;;;10.77;2.40;;;;;;;;;;4885197;29;20462;-88
2022/01/31 08:12:36;;;;;;;45.23;6.73;;;;;;;;;;4885046;29;20489;-88
2022/01/31 08:15:07;;;;;;;79.30;8.07;;;;;;;;;;4894292;29;20453;-88
2022/01/31 08:17:35;;;;;;;68.20;8.40;;;;;;;;;;4919238;29;20500;-89
2022/01/31 08:20:09;;;;;;;190.37;12.87;;;;;;;;;;4918989;29;20845;-87
2022/01/31 08:22:36;;;;;;;121.87;13.33;;;;;;;;;;4930916;29;20540;-88
2022/01/31 08:25:05;;;;;;;78.20;10.40;;;;;;;;;;4900080;29;20569;-88
2022/01/31 08:27:33;;;;;;;61.17;10.50;;;;;;;;;;4907754;29;20488;-88
2022/01/31 08:30:07;;;;;;;72.73;7.20;;;;;;;;;;4921346;29;20939;-88
2022/01/31 08:32:44;;;;;;;34.07;5.20;;;;;;;;;;4906757;29;20447;-88
2022/01/31 08:38:00;;;;;;;74.53;11.50;;;;;;;;;;4927445;29;20447;-88
2022/01/31 08:40:29;;;;;;;67.30;11.30;;;;;;;;;;4921292;29;20432;-88
2022/01/31 08:43:03;;;;;;;85.67;12.63;;;;;;;;;;4923177;29;20436;-88
2022/01/31 08:45:30;;;;;;;130.77;10.40;;;;;;;;;;4905529;29;20591;-89
2022/01/31 08:47:57;;;;;;;55.80;9.00;;;;;;;;;;4912615;28;20485;-89
2022/01/31 08:50:25;;;;;;;63.03;9.80;;;;;;;;;;4931539;28;20474;-89
2022/01/31 08:52:52;;;;;;;98.63;28.10;;;;;;;;;;4925894;29;20459;-89
2022/01/31 08:55:25;;;;;;;57.43;15.70;;;;;;;;;;4926612;28;20448;-89
2022/01/31 08:57:57;;;;;;;43.97;9.97;;;;;;;;;;4940739;28;20855;-89
2022/01/31 09:00:34;;;;;;;34.37;11.20;;;;;;;;;;4940464;28;20911;-88
2022/01/31 09:05:39;;;;;;;68.60;26.03;;;;;;;;;;4941991;28;20490;-87
2022/01/31 09:08:07;;;;;;;60.17;29.43;;;;;;;;;;4941064;28;20438;-88
2022/01/31 09:10:35;;;;;;;79.13;31.90;;;;;;;;;;4941561;28;20465;-89
2022/01/31 09:13:04;;;;;;;46.70;17.30;;;;;;;;;;4943619;28;20447;-87
2022/01/31 09:15:32;;;;;;;37.33;13.23;;;;;;;;;;4921378;28;20447;-89
2022/01/31 09:18:01;;;;;;;32.50;13.27;;;;;;;;;;4928454;29;20443;-88
2022/01/31 09:20:30;;;;;;;32.30;13.53;;;;;;;;;;4940777;29;20495;-89
2022/01/31 09:23:11;;;;;;;36.17;11.63;;;;;;;;;;4913810;29;20460;-89
2022/01/31 09:25:45;;;;;;;22.40;8.70;;;;;;;;;;4906226;29;21077;-90
2022/01/31 09:28:14;;;;;;;37.57;10.00;;;;;;;;;;4728746;29;5256346;-88
2022/01/31 09:30:42;;;;;;;44.57;10.87;;;;;;;;;;4906245;29;20198;-89
2022/01/31 09:33:12;;;;;;;41.77;12.70;;;;;;;;;;4936256;28;20464;-88
2022/01/31 09:35:40;;;;;;;25.90;12.57;;;;;;;;;;4944034;28;20458;-88
2022/01/31 09:38:08;;;;;;;31.20;10.40;;;;;;;;;;4943505;28;20451;-89
2022/01/31 09:40:47;;;;;;;34.27;9.00;;;;;;;;;;4959299;28;20465;-89
2022/01/31 09:47:05;;;;;;;25.63;8.13;;;;;;;;;;4938377;29;20544;-89
2022/01/31 09:48:51;;;;;;;21.30;8.07;;;;;;;;;;4923902;29;20483;-89
2022/01/31 09:51:20;;;;;;;29.43;8.53;;;;;;;;;;4918013;29;20448;-90
2022/01/31 09:53:58;;;;;;;22.00;8.93;;;;;;;;;;4920424;29;20451;-89
2022/01/31 09:56:26;;;;;;;15.13;6.03;;;;;;;;;;4937534;29;20452;-89
2022/01/31 09:58:54;;;;;;;18.13;5.40;;;;;;;;;;4920687;29;20448;-89
2022/01/31 10:01:27;;;;;;;10.07;3.43;;;;;;;;;;4905080;29;21014;-90
2022/01/31 10:03:54;;;;;;;67.17;22.87;;;;;;;;;;4915422;29;20950;-90
2022/01/31 10:06:29;;;;;;;77.00;29.13;;;;;;;;;;4938264;29;21046;-89
2022/01/31 10:09:00;;;;;;;30.87;12.40;;;;;;;;;;4921212;29;20466;-89
2022/01/31 10:11:29;;;;;;;26.97;7.70;;;;;;;;;;4937026;29;20475;-88
2022/01/31 10:16:55;;;;;;;22.73;8.67;;;;;;;;;;4935357;29;20834;-88
2022/01/31 10:19:44;;;;;;;20.37;8.60;;;;;;;;;;4923128;29;20440;-89
2022/01/31 10:22:13;;;;;;;16.90;7.67;;;;;;;;;;4905008;29;20456;-89
2022/01/31 10:24:45;;;;;;;16.13;5.97;;;;;;;;;;4920204;29;20459;-89
2022/01/31 10:27:12;;;;;;;13.17;3.20;;;;;;;;;;4919977;29;20507;-89
2022/01/31 10:29:42;;;;;;;10.73;2.57;;;;;;;;;;4932950;29;20443;-89
2022/01/31 10:32:16;;;;;;;15.47;4.00;;;;;;;;;;4920920;29;20443;-89
2022/01/31 10:34:52;;;;;;;25.17;7.00;;;;;;;;;;4918016;29;20474;-89
2022/01/31 10:37:23;;;;;;;31.63;10.97;;;;;;;;;;4935958;29;21013;-89
2022/01/31 10:56:38;;;;;;;26.00;3.90;;;;;;;;;;4939817;29;20439;-90
2022/01/31 10:59:11;;;;;;;25.80;4.97;;;;;;;;;;4923637;29;20530;-90
2022/01/31 11:01:40;;;;;;;13.67;3.67;;;;;;;;;;4937770;29;20453;-90
2022/01/31 11:04:31;;;;;;;13.73;3.60;;;;;;;;;;4942437;29;20447;-92
2022/01/31 11:06:59;;;;;;;10.33;3.43;;;;;;;;;;4956008;29;20519;-91
2022/01/31 11:09:29;;;;;;;10.73;3.13;;;;;;;;;;4921947;29;20478;-90
2022/01/31 11:11:57;;;;;;;13.03;2.53;;;;;;;;;;4921676;29;20447;-84
2022/01/31 11:14:26;;;;;;;13.50;2.80;;;;;;;;;;4932117;29;20981;-84
2022/01/31 11:16:56;;;;;;;20.10;3.20;;;;;;;;;;4922273;29;20495;-85
2022/01/31 11:19:31;;;;;;;12.10;3.03;;;;;;;;;;4929269;29;20443;-85
2022/01/31 11:22:04;;;;;;;16.63;7.10;;;;;;;;;;4920139;29;20954;-87
2022/01/31 11:24:52;;;;;;;18.80;3.70;;;;;;;;;;4956502;29;20458;-85
2022/01/31 11:27:22;;;;;;;19.50;4.57;;;;;;;;;;4936348;29;20496;-87
2022/01/31 11:29:55;;;;;;;15.03;3.03;;;;;;;;;;4922145;29;20444;-86
2022/01/31 11:32:23;;;;;;;11.73;2.10;;;;;;;;;;4924502;29;20455;-84
2022/01/31 11:34:51;;;;;;;11.17;2.00;;;;;;;;;;4928367;29;20459;-88
2022/01/31 11:37:21;;;;;;;11.80;2.33;;;;;;;;;;4913029;29;20479;-87
2022/01/31 11:40:31;;;;;;;15.93;2.43;;;;;;;;;;4935147;29;20456;-91
2022/01/31 11:43:23;;;;;;;6.07;2.07;;;;;;;;;;4963058;28;20474;-91
2022/01/31 11:45:51;;;;;;;7.53;2.23;;;;;;;;;;4993790;23;20504;-89
2022/01/31 11:48:23;;;;;;;20.93;2.60;;;;;;;;;;4920009;29;20432;-85
2022/01/31 11:50:58;;;;;;;6.67;2.07;;;;;;;;;;4954939;29;20419;-86
2022/01/31 11:53:26;;;;;;;14.77;2.93;;;;;;;;;;4919091;29;20519;-85
2022/01/31 11:56:02;;;;;;;5.87;2.53;;;;;;;;;;4907057;29;21015;-86
2022/01/31 11:58:30;;;;;;;12.63;2.20;;;;;;;;;;4917962;29;20954;-86
2022/01/31 12:01:03;;;;;;;10.37;2.23;;;;;;;;;;4914704;29;20534;-85
2022/01/31 12:03:32;;;;;;;22.63;2.20;;;;;;;;;;4941153;29;20479;-85
2022/01/31 12:06:07;;;;;;;5.37;1.50;;;;;;;;;;4922591;29;20837;-85
2022/01/31 12:08:41;;;;;;;9.67;1.90;;;;;;;;;;4939543;29;20525;-85
2022/01/31 12:11:15;;;;;;;8.87;1.50;;;;;;;;;;4909050;29;20448;-85
2022/01/31 12:13:52;;;;;;;16.10;1.93;;;;;;;;;;4931931;29;20460;-84
2022/01/31 12:17:08;;;;;;;21.77;2.70;;;;;;;;;;4942050;29;20526;-85
2022/01/31 12:22:32;;;;;;;12.60;2.27;;;;;;;;;;4925432;29;20448;-84
2022/01/31 12:24:59;;;;;;;17.73;2.10;;;;;;;;;;4941693;29;20507;-85
2022/01/31 12:27:27;;;;;;;11.50;2.67;;;;;;;;;;4905277;29;20511;-85
2022/01/31 12:29:59;;;;;;;13.97;2.30;;;;;;;;;;4905461;29;20448;-85
2022/01/31 12:32:35;;;;;;;12.50;2.83;;;;;;;;;;4926393;29;20503;-85
2022/01/31 12:35:14;;;;;;;9.23;2.00;;;;;;;;;;4931367;29;20538;-85
2022/01/31 12:37:50;;;;;;;9.43;1.93;;;;;;;;;;4932327;29;20442;-85
2022/01/31 12:40:18;;;;;;;7.57;3.53;;;;;;;;;;4927937;29;20535;-85
2022/01/31 12:43:10;;;;;;;13.50;4.20;;;;;;;;;;4946436;29;20460;-85
2022/01/31 12:49:20;;;;;;;22.00;3.03;;;;;;;;;;4905043;29;20983;-85
2022/01/31 12:52:24;;;;;;;8.20;1.80;;;;;;;;;;4883916;29;20434;-85
2022/01/31 12:54:53;;;;;;;7.03;1.73;;;;;;;;;;4890784;29;20444;-85
2022/01/31 12:57:22;;;;;;;15.67;2.83;;;;;;;;;;4907974;29;20544;-85
2022/01/31 12:59:50;;;;;;;7.43;2.47;;;;;;;;;;4886167;29;20442;-85
2022/01/31 13:02:19;;;;;;;9.07;2.10;;;;;;;;;;4897992;29;21057;-85
2022/01/31 13:05:08;;;;;;;10.60;3.17;;;;;;;;;;4885788;29;20452;-85
2022/01/31 13:07:44;;;;;;;14.83;2.00;;;;;;;;;;4912307;29;20473;-87
2022/01/31 13:10:19;;;;;;;10.10;2.23;;;;;;;;;;4900560;29;20839;-87
2022/01/31 13:26:56;;;;;;;9.90;2.33;;;;;;;;;;4899541;29;20513;-86
2022/01/31 13:29:52;;;;;;;14.50;2.67;;;;;;;;;;4908240;29;20462;-85
2022/01/31 13:32:35;;;;;;;8.80;2.30;;;;;;;;;;4881255;29;20470;-86
2022/01/31 13:45:35;;;;;;;8.03;2.07;;;;;;;;;;4934391;29;20433;-85
2022/01/31 13:48:51;;;;;;;9.10;2.00;;;;;;;;;;4907166;29;20452;-85
2022/01/31 13:50:58;;;;;;;11.90;2.10;;;;;;;;;;4921310;29;20448;-85
2022/01/31 13:53:35;;;;;;;6.40;1.93;;;;;;;;;;4905942;29;20544;-86
2022/01/31 13:56:32;;;;;;;15.50;2.50;;;;;;;;;;4904607;29;20452;-85
2022/01/31 13:59:04;;;;;;;11.63;2.10;;;;;;;;;;4919148;29;20550;-86
2022/01/31 14:01:33;;;;;;;14.43;2.67;;;;;;;;;;4919910;29;20444;-85
2022/01/31 14:04:01;;;;;;;4.87;2.30;;;;;;;;;;4905438;29;20441;-86
2022/01/31 14:06:32;;;;;;;11.33;2.50;;;;;;;;;;4904558;29;20488;-86
2022/01/31 14:09:02;;;;;;;14.30;2.67;;;;;;;;;;4920273;28;20466;-85
2022/01/31 14:11:39;;;;;;;9.13;2.23;;;;;;;;;;4944961;29;20429;-86
2022/01/31 14:14:10;;;;;;;13.87;1.93;;;;;;;;;;4929960;28;20427;-85
2022/01/31 14:16:39;;;;;;;7.73;2.10;;;;;;;;;;4929499;28;20499;-85
2022/01/31 14:19:07;;;;;;;8.67;1.60;;;;;;;;;;4929535;28;20494;-84
2022/01/31 14:21:44;;;;;;;12.97;1.80;;;;;;;;;;4930201;28;20436;-86
2022/01/31 14:24:13;;;;;;;5.97;2.00;;;;;;;;;;4944945;28;20423;-85
2022/01/31 14:27:02;;;;;;;10.50;2.00;;;;;;;;;;4947609;28;20471;-87
2022/01/31 14:29:36;;;;;;;10.67;2.30;;;;;;;;;;4945219;29;20432;-85
2022/01/31 14:32:07;;;;;;;10.03;2.50;;;;;;;;;;4932906;29;20444;-85
2022/01/31 14:34:39;;;;;;;12.53;1.70;;;;;;;;;;4939533;29;20466;-85
2022/01/31 14:41:08;;;;;;;9.93;2.30;;;;;;;;;;4938566;29;20463;-85
2022/01/31 14:49:56;;;;;;;7.90;2.07;;;;;;;;;;4928415;29;20455;-85
2022/01/31 14:52:28;;;;;;;5.47;2.10;;;;;;;;;;4925222;29;20479;-85
2022/01/31 14:55:04;;;;;;;8.00;3.00;;;;;;;;;;4908202;29;20507;-84
2022/01/31 14:57:49;;;;;;;10.63;2.00;;;;;;;;;;4932249;29;20954;-85
2022/01/31 15:00:21;;;;;;;6.67;2.40;;;;;;;;;;4924522;29;20452;-85
2022/01/31 15:02:51;;;;;;;6.97;2.53;;;;;;;;;;4918761;29;20919;-85
2022/01/31 15:05:20;;;;;;;5.47;2.07;;;;;;;;;;4923436;29;20542;-85
2022/01/31 15:07:47;;;;;;;14.87;2.90;;;;;;;;;;4920974;29;20496;-85
2022/01/31 15:10:20;;;;;;;5.07;2.00;;;;;;;;;;4920551;29;20527;-85
2022/01/31 15:12:48;;;;;;;8.07;1.93;;;;;;;;;;4889055;29;20448;-85
2022/01/31 15:15:21;;;;;;;8.23;1.80;;;;;;;;;;4889829;29;20800;-84
2022/01/31 15:17:50;;;;;;;10.00;2.43;;;;;;;;;;4903742;29;20547;-86
2022/01/31 15:20:19;;;;;;;7.07;2.07;;;;;;;;;;4903533;29;20445;-86
2022/01/31 15:22:53;;;;;;;8.00;2.27;;;;;;;;;;4903831;29;20795;-85
2022/01/31 15:25:22;;;;;;;8.23;2.20;;;;;;;;;;4889549;29;20523;-85
2022/01/31 15:27:51;;;;;;;8.83;1.90;;;;;;;;;;4920899;29;20512;-85
2022/01/31 15:30:19;;;;;;;5.93;1.87;;;;;;;;;;4890323;29;20460;-85
2022/01/31 15:32:47;;;;;;;9.50;2.00;;;;;;;;;;4889704;29;20449;-86
2022/01/31 15:35:18;;;;;;;12.03;2.10;;;;;;;;;;4904690;29;20479;-86
2022/01/31 15:37:48;;;;;;;7.50;1.90;;;;;;;;;;4904253;29;20480;-85
2022/01/31 15:40:21;;;;;;;6.23;2.17;;;;;;;;;;4889358;29;20440;-85
2022/01/31 15:42:50;;;;;;;7.60;2.50;;;;;;;;;;4887909;29;20531;-85
2022/01/31 15:45:17;;;;;;;7.60;2.73;;;;;;;;;;4887794;29;20459;-85
2022/01/31 15:47:45;;;;;;;8.10;2.03;;;;;;;;;;4903248;29;20547;-85
2022/01/31 15:50:35;;;;;;;12.90;2.40;;;;;;;;;;4903345;29;20524;-86
2022/01/31 15:53:03;;;;;;;11.33;2.20;;;;;;;;;;4919280;29;20820;-85
2022/01/31 15:55:31;;;;;;;2.70;1.80;;;;;;;;;;4903254;29;20456;-86
2022/01/31 15:58:03;;;;;;;7.03;2.00;;;;;;;;;;4887892;29;20555;-85
2022/01/31 16:01:00;;;;;;;9.17;2.60;;;;;;;;;;4924470;29;20790;-85
2022/01/31 16:03:29;;;;;;;7.23;2.20;;;;;;;;;;4920113;29;20445;-85
2022/01/31 16:05:56;;;;;;;5.27;2.40;;;;;;;;;;4887865;29;20441;-85
2022/01/31 16:08:25;;;;;;;4.70;2.63;;;;;;;;;;4903153;29;20489;-84
2022/01/31 16:10:55;;;;;;;5.50;2.23;;;;;;;;;;4919316;29;20450;-85
2022/01/31 16:14:21;;;;;;;2.90;1.40;;;;;;;;;;4905974;29;20445;-85
2022/01/31 16:16:48;;;;;;;5.03;1.80;;;;;;;;;;4920285;29;20436;-85
2022/01/31 16:19:18;;;;;;;7.27;1.87;;;;;;;;;;4903883;29;20445;-85
2022/01/31 16:21:47;;;;;;;4.90;1.70;;;;;;;;;;4907699;29;20469;-84
2022/01/31 16:24:20;;;;;;;2.83;1.97;;;;;;;;;;4911953;29;20521;-85